Time;durP1;ratioP1;P1;durP2;ratioP2;P2;SDS_P1;SDS_P2;PMS_P1;PMS_P2;Temp;Humidity;BMP_temperature;BMP_pressure;BME280_temperature;BME280_humidity;BME280_pressure;Samples;Min_cycle;Max_cycle;Signal;HPM_P1;HPM_P2
2022/02/21 00:00:26;;;;;;;1.13;0.60;;;10.60;99.90;;;;;;5043487;28;20036;-83
2022/02/21 00:02:53;;;;;;;1.63;0.70;;;10.60;99.90;;;;;;5038581;28;20038;-83
2022/02/21 00:05:20;;;;;;;2.78;0.70;;;10.70;99.90;;;;;;5030694;28;20021;-81
2022/02/21 00:07:46;;;;;;;1.80;0.50;;;10.70;99.90;;;;;;5024310;28;20079;-79
2022/02/21 00:10:12;;;;;;;1.92;0.73;;;10.70;99.90;;;;;;5053088;28;20482;-87
2022/02/21 00:12:39;;;;;;;1.60;0.50;;;10.70;99.90;;;;;;5045212;28;20480;-86
2022/02/21 00:15:06;;;;;;;2.40;0.55;;;10.70;99.90;;;;;;5049198;28;20036;-80
2022/02/21 00:17:32;;;;;;;4.28;1.33;;;10.70;99.90;;;;;;5035978;28;20029;-80
2022/02/21 00:19:58;;;;;;;1.30;0.60;;;10.70;99.90;;;;;;5035922;28;20547;-81
2022/02/21 00:22:26;;;;;;;3.17;0.60;;;10.70;99.90;;;;;;5036027;28;20022;-80
2022/02/21 00:24:53;;;;;;;1.35;0.63;;;10.70;99.90;;;;;;5036963;28;20033;-80
2022/02/21 00:27:19;;;;;;;3.53;0.80;;;10.70;99.90;;;;;;5034031;28;20043;-81
2022/02/21 00:29:45;;;;;;;1.08;0.60;;;10.70;99.90;;;;;;5035298;28;20025;-78
2022/02/21 00:32:11;;;;;;;1.80;0.70;;;10.80;99.90;;;;;;5032544;28;20022;-79
2022/02/21 00:34:37;;;;;;;2.20;0.88;;;10.80;99.90;;;;;;5033954;28;20403;-81
2022/02/21 00:37:02;;;;;;;1.92;0.75;;;10.80;99.90;;;;;;5030825;28;20057;-78
2022/02/21 00:39:28;;;;;;;3.45;0.88;;;10.80;99.90;;;;;;5036635;28;20446;-80
2022/02/21 00:41:54;;;;;;;3.17;0.93;;;10.70;99.90;;;;;;5050772;28;20039;-80
2022/02/21 00:44:19;;;;;;;1.50;0.68;;;10.70;99.90;;;;;;5051371;28;20377;-80
2022/02/21 00:46:45;;;;;;;2.78;0.65;;;10.70;99.90;;;;;;5041980;28;20081;-79
2022/02/21 00:49:10;;;;;;;4.10;0.75;;;10.70;99.90;;;;;;5035640;28;20037;-81
2022/02/21 00:51:36;;;;;;;1.02;0.60;;;10.70;99.90;;;;;;5029617;28;20029;-79
2022/02/21 00:54:01;;;;;;;2.50;0.70;;;10.70;99.90;;;;;;5039770;28;20025;-81
2022/02/21 00:56:27;;;;;;;2.88;1.15;;;10.70;99.90;;;;;;5040152;28;20561;-80
2022/02/21 00:58:52;;;;;;;2.42;0.65;;;10.70;99.90;;;;;;5035213;28;20048;-80
2022/02/21 01:01:18;;;;;;;3.47;0.80;;;10.70;99.90;;;;;;5028643;28;20026;-80
2022/02/21 01:03:43;;;;;;;3.25;0.80;;;10.60;99.90;;;;;;5040685;28;20079;-80
2022/02/21 01:06:09;;;;;;;0.88;0.60;;;10.60;99.90;;;;;;5034545;28;20081;-80
2022/02/21 01:08:35;;;;;;;1.17;0.60;;;10.50;99.90;;;;;;5033306;28;20380;-79
2022/02/21 01:11:01;;;;;;;1.58;0.60;;;10.60;99.90;;;;;;5038614;28;20041;-80
2022/02/21 01:13:26;;;;;;;1.70;1.00;;;10.50;99.90;;;;;;5042426;28;20096;-79
2022/02/21 01:15:53;;;;;;;0.73;0.45;;;10.60;99.90;;;;;;5040256;28;20037;-79
2022/02/21 01:18:20;;;;;;;3.15;0.80;;;10.50;99.90;;;;;;5034948;28;20033;-80
2022/02/21 01:20:46;;;;;;;4.50;0.80;;;10.50;99.90;;;;;;5039760;28;20029;-79
2022/02/21 01:23:11;;;;;;;4.03;0.93;;;10.50;99.90;;;;;;5038709;28;20033;-79
2022/02/21 01:25:37;;;;;;;3.53;0.85;;;10.50;99.90;;;;;;5036751;28;20044;-80
2022/02/21 01:28:03;;;;;;;2.08;0.70;;;10.40;99.90;;;;;;5041583;28;20036;-80
2022/02/21 01:30:28;;;;;;;3.20;0.70;;;10.40;99.90;;;;;;5028232;28;20029;-80
2022/02/21 01:32:54;;;;;;;1.77;0.70;;;10.30;99.90;;;;;;5037035;28;20113;-79
2022/02/21 01:35:20;;;;;;;2.33;0.93;;;10.30;99.90;;;;;;5038065;28;20034;-79
2022/02/21 01:37:45;;;;;;;1.30;0.60;;;10.30;99.90;;;;;;5035282;28;20053;-81
2022/02/21 01:40:11;;;;;;;2.33;0.73;;;10.30;99.90;;;;;;5037484;28;20029;-79
2022/02/21 01:42:37;;;;;;;3.95;0.65;;;10.30;99.90;;;;;;5036161;28;20022;-81
2022/02/21 01:45:03;;;;;;;1.63;0.70;;;10.30;99.90;;;;;;5033020;28;20429;-80
2022/02/21 01:47:29;;;;;;;2.03;0.60;;;10.30;99.90;;;;;;5041555;28;20025;-80
2022/02/21 01:49:54;;;;;;;2.10;0.73;;;10.30;99.90;;;;;;5036058;28;20026;-80
2022/02/21 01:52:20;;;;;;;3.35;0.85;;;10.30;99.90;;;;;;5040235;28;20068;-79
2022/02/21 01:54:46;;;;;;;0.70;0.60;;;10.30;99.90;;;;;;5039093;28;20017;-79
2022/02/21 01:57:12;;;;;;;1.00;0.32;;;10.30;99.90;;;;;;5041991;28;20033;-80
2022/02/21 01:59:39;;;;;;;1.67;0.55;;;10.30;99.90;;;;;;5045760;28;20040;-80
2022/02/21 02:02:06;;;;;;;2.28;0.70;;;10.30;99.90;;;;;;5038296;28;20033;-81
2022/02/21 02:04:32;;;;;;;2.92;0.85;;;10.30;99.90;;;;;;5030599;28;20017;-79
2022/02/21 02:06:59;;;;;;;2.40;0.63;;;10.30;99.90;;;;;;5039056;28;20030;-80
2022/02/21 02:09:24;;;;;;;1.65;0.68;;;10.30;99.90;;;;;;5031819;28;20022;-80
2022/02/21 02:11:51;;;;;;;2.75;0.65;;;10.30;99.90;;;;;;5032162;28;20080;-79
2022/02/21 02:14:39;;;;;;;3.85;1.00;;;10.30;99.90;;;;;;5030611;28;20109;-79
2022/02/21 02:17:07;;;;;;;2.10;0.40;;;10.20;99.90;;;;;;5025483;28;20030;-79
2022/02/21 02:19:33;;;;;;;0.95;0.50;;;10.20;99.90;;;;;;5034641;28;20457;-80
2022/02/21 02:22:19;;;;;;;1.15;0.68;;;10.10;99.90;;;;;;5036889;28;20091;-80
2022/02/21 02:24:47;;;;;;;1.85;0.63;;;10.20;99.90;;;;;;5032037;28;20040;-80
2022/02/21 02:27:14;;;;;;;0.88;0.55;;;10.20;99.90;;;;;;5035881;28;20022;-79
2022/02/21 02:29:42;;;;;;;0.95;0.40;;;10.20;99.90;;;;;;5041722;28;20089;-79
2022/02/21 02:32:08;;;;;;;2.90;0.65;;;10.10;99.90;;;;;;5047157;28;20037;-79
2022/02/21 02:34:36;;;;;;;1.45;0.47;;;10.10;99.90;;;;;;5047887;28;20056;-79
2022/02/21 02:37:02;;;;;;;1.38;1.13;;;10.20;99.90;;;;;;5051629;28;20033;-79
2022/02/21 02:39:28;;;;;;;1.67;0.55;;;10.10;99.90;;;;;;5031182;28;20021;-79
2022/02/21 02:41:54;;;;;;;0.73;0.40;;;10.10;99.90;;;;;;5029347;28;20040;-79
2022/02/21 02:44:20;;;;;;;2.17;0.52;;;10.10;99.90;;;;;;5031207;28;20101;-79
2022/02/21 02:46:46;;;;;;;2.08;0.57;;;10.00;99.90;;;;;;5032896;28;20062;-80
2022/02/21 02:49:12;;;;;;;3.05;0.50;;;9.90;99.90;;;;;;5037773;28;20073;-79
2022/02/21 02:51:37;;;;;;;0.90;0.40;;;9.90;99.90;;;;;;5034209;28;20027;-80
2022/02/21 02:54:13;;;;;;;1.15;0.60;;;9.80;99.90;;;;;;5039071;28;20053;-79
2022/02/21 02:56:39;;;;;;;2.38;0.40;;;9.80;99.90;;;;;;5036865;28;20025;-81
2022/02/21 02:59:06;;;;;;;1.23;0.40;;;9.80;99.90;;;;;;5043822;28;20401;-80
2022/02/21 03:01:31;;;;;;;1.75;0.50;;;9.80;99.90;;;;;;5032843;28;20040;-79
2022/02/21 03:03:57;;;;;;;1.48;0.47;;;9.80;99.90;;;;;;5046812;28;20041;-78
2022/02/21 03:06:22;;;;;;;2.53;0.50;;;9.80;99.90;;;;;;5032958;28;20057;-80
2022/02/21 03:08:48;;;;;;;1.08;0.50;;;9.80;99.90;;;;;;5045701;28;20025;-80
2022/02/21 03:11:14;;;;;;;2.40;0.68;;;9.90;99.90;;;;;;5050615;28;20030;-81
2022/02/21 03:13:40;;;;;;;0.95;0.50;;;9.90;99.90;;;;;;5048555;28;20026;-81
2022/02/21 03:16:06;;;;;;;1.52;0.80;;;10.00;99.90;;;;;;5049142;28;20025;-79
2022/02/21 03:18:31;;;;;;;0.85;0.40;;;10.00;99.90;;;;;;5060027;28;20033;-79
2022/02/21 03:20:57;;;;;;;3.17;0.65;;;10.00;99.90;;;;;;5055957;28;20014;-79
2022/02/21 03:23:23;;;;;;;0.47;0.30;;;10.10;99.90;;;;;;5056518;28;20105;-79
2022/02/21 03:25:49;;;;;;;1.27;0.40;;;10.10;99.90;;;;;;5054840;28;20036;-80
2022/02/21 03:28:15;;;;;;;2.63;0.40;;;10.10;99.90;;;;;;5048156;28;20060;-81
2022/02/21 03:30:41;;;;;;;2.00;0.50;;;10.20;99.90;;;;;;5030547;28;20482;-80
2022/02/21 03:33:08;;;;;;;1.15;0.30;;;10.20;99.90;;;;;;5034230;28;20470;-79
2022/02/21 03:35:34;;;;;;;1.85;0.65;;;10.20;99.90;;;;;;5035340;28;20025;-79
2022/02/21 03:38:00;;;;;;;1.15;0.73;;;10.10;99.90;;;;;;5042012;28;20069;-79
2022/02/21 03:40:26;;;;;;;1.27;0.20;;;10.10;99.90;;;;;;5037918;28;20029;-80
2022/02/21 03:42:52;;;;;;;1.85;0.50;;;7.80;99.90;;;;;;5029718;28;20021;-78
2022/02/21 03:45:19;;;;;;;0.57;0.35;;;5.90;99.90;;;;;;5040197;28;20025;-79
2022/02/21 03:47:45;;;;;;;1.08;0.30;;;4.70;1.00;;;;;;5038397;28;20108;-78
2022/02/21 03:50:11;;;;;;;2.70;0.52;;;4.00;1.00;;;;;;5040734;28;20025;-79
2022/02/21 03:52:36;;;;;;;0.77;0.40;;;4.00;1.00;;;;;;5037488;28;20029;-79
2022/02/21 03:55:03;;;;;;;0.45;0.40;;;4.00;1.00;;;;;;5030575;28;20034;-79
2022/02/21 03:57:29;;;;;;;0.70;0.45;;;4.20;1.00;;;;;;5033225;28;20045;-78
2022/02/21 03:59:54;;;;;;;1.60;0.50;;;4.20;1.00;;;;;;5028051;28;20095;-79
2022/02/21 04:02:20;;;;;;;0.98;0.30;;;4.20;1.00;;;;;;5035308;28;20025;-79
2022/02/21 04:04:45;;;;;;;3.65;0.65;;;4.20;1.00;;;;;;5025651;28;20092;-77
2022/02/21 04:07:11;;;;;;;0.75;0.40;;;4.20;1.00;;;;;;5030236;28;20026;-78
2022/02/21 04:09:36;;;;;;;0.95;0.30;;;4.20;1.00;;;;;;5041089;28;20024;-78
2022/02/21 04:12:03;;;;;;;0.88;0.50;;;4.10;1.00;;;;;;5029551;28;20030;-79
2022/02/21 04:14:29;;;;;;;3.45;0.50;;;4.00;1.00;;;;;;5033256;28;20029;-79
2022/02/21 04:16:55;;;;;;;2.35;0.50;;;4.00;1.00;;;;;;5034943;28;20508;-79
2022/02/21 04:19:20;;;;;;;3.97;0.88;;;4.00;1.00;;;;;;5035645;28;20034;-79
2022/02/21 04:21:46;;;;;;;0.88;0.30;;;4.00;1.00;;;;;;5026588;28;20072;-79
2022/02/21 04:24:11;;;;;;;1.35;1.00;;;3.90;1.00;;;;;;5034604;28;20022;-78
2022/02/21 04:26:37;;;;;;;3.00;0.60;;;4.00;1.00;;;;;;5030709;28;20022;-78
2022/02/21 04:29:03;;;;;;;2.53;0.30;;;4.00;1.00;;;;;;5029293;28;20042;-80
2022/02/21 04:31:28;;;;;;;3.13;0.60;;;4.20;1.00;;;;;;5024014;28;20028;-79
2022/02/21 04:33:54;;;;;;;1.88;0.40;;;4.20;1.00;;;;;;5042698;28;20040;-78
2022/02/21 04:36:20;;;;;;;4.53;1.17;;;4.30;1.00;;;;;;5048714;28;20021;-77
2022/02/21 04:38:45;;;;;;;2.97;0.50;;;4.40;1.00;;;;;;5035028;28;20058;-77
2022/02/21 04:41:11;;;;;;;2.15;0.88;;;4.50;99.90;;;;;;5028638;28;20021;-78
2022/02/21 04:43:38;;;;;;;2.08;0.80;;;4.40;1.00;;;;;;5034253;28;20021;-78
2022/02/21 04:46:03;;;;;;;6.45;0.93;;;4.50;99.90;;;;;;5032238;28;20061;-77
2022/02/21 04:48:29;;;;;;;2.33;1.00;;;4.40;1.00;;;;;;5035600;28;20070;-78
2022/02/21 04:50:55;;;;;;;3.03;0.90;;;4.40;99.90;;;;;;5035596;28;20053;-78
2022/02/21 04:53:21;;;;;;;4.50;1.13;;;4.40;1.00;;;;;;5037095;28;20076;-79
2022/02/21 04:55:47;;;;;;;3.97;0.80;;;4.50;99.90;;;;;;5026853;28;20049;-79
2022/02/21 04:58:13;;;;;;;7.82;0.80;;;4.50;99.90;;;;;;5021728;28;20034;-78
2022/02/21 05:00:39;;;;;;;5.07;0.77;;;4.60;99.90;;;;;;5032441;28;20030;-79
2022/02/21 05:03:04;;;;;;;3.95;1.13;;;4.60;99.90;;;;;;5025056;28;20112;-78
2022/02/21 05:05:30;;;;;;;9.15;1.08;;;4.60;99.90;;;;;;5027229;28;20045;-77
2022/02/21 05:07:55;;;;;;;2.80;0.90;;;4.60;99.90;;;;;;5031191;28;20021;-77
2022/02/21 05:10:22;;;;;;;4.53;0.75;;;4.70;99.90;;;;;;5033906;28;20488;-78
2022/02/21 05:12:47;;;;;;;6.22;1.10;;;4.80;99.90;;;;;;5042696;28;20037;-78
2022/02/21 05:15:13;;;;;;;4.40;1.63;;;4.80;99.90;;;;;;5025232;28;20512;-78
2022/02/21 05:17:40;;;;;;;8.10;1.15;;;4.90;99.90;;;;;;5031066;28;20389;-79
2022/02/21 05:20:08;;;;;;;4.80;0.95;;;4.90;99.90;;;;;;5039754;28;20152;-79
2022/02/21 05:22:34;;;;;;;4.75;1.52;;;4.90;99.90;;;;;;5029521;28;20026;-78
2022/02/21 05:25:00;;;;;;;4.30;1.42;;;5.00;99.90;;;;;;5030717;28;20033;-78
2022/02/21 05:27:26;;;;;;;5.18;1.35;;;5.00;99.90;;;;;;5034659;28;20028;-78
2022/02/21 05:29:51;;;;;;;4.05;1.33;;;5.10;99.90;;;;;;5029749;28;20053;-79
2022/02/21 05:32:17;;;;;;;5.90;1.27;;;5.20;99.90;;;;;;5039036;28;20043;-78
2022/02/21 05:34:43;;;;;;;4.68;1.38;;;5.20;99.90;;;;;;5031766;28;20553;-79
2022/02/21 05:37:09;;;;;;;5.78;1.58;;;5.20;99.90;;;;;;5031545;28;20032;-78
2022/02/21 05:39:35;;;;;;;5.75;1.15;;;5.30;1.00;;;;;;5036082;28;20053;-78
2022/02/21 05:42:01;;;;;;;5.35;0.75;;;5.20;99.90;;;;;;5031989;28;20501;-78
2022/02/21 05:44:26;;;;;;;3.75;1.20;;;5.20;99.90;;;;;;5022885;28;20029;-78
2022/02/21 05:46:52;;;;;;;6.68;1.55;;;5.30;99.90;;;;;;5034580;28;20030;-78
2022/02/21 05:49:18;;;;;;;7.90;1.48;;;5.40;99.90;;;;;;5023505;28;20109;-78
2022/02/21 05:51:43;;;;;;;4.47;1.55;;;5.40;99.90;;;;;;5033415;28;20025;-79
2022/02/21 05:54:09;;;;;;;6.32;1.17;;;5.40;99.90;;;;;;5030730;28;20041;-78
2022/02/21 05:56:35;;;;;;;4.65;1.30;;;5.40;99.90;;;;;;5028934;28;20029;-79
2022/02/21 05:59:00;;;;;;;6.03;1.92;;;5.40;99.90;;;;;;5031212;28;20410;-78
2022/02/21 06:01:26;;;;;;;6.80;1.30;;;5.50;99.90;;;;;;5029319;28;20069;-78
2022/02/21 06:03:52;;;;;;;7.68;1.25;;;5.50;99.90;;;;;;5031171;28;20037;-78
2022/02/21 06:06:17;;;;;;;7.20;1.67;;;5.50;99.90;;;;;;5032961;28;20478;-78
2022/02/21 06:08:43;;;;;;;4.30;2.08;;;5.60;99.90;;;;;;5028206;28;20026;-79
2022/02/21 06:11:08;;;;;;;4.38;1.58;;;5.50;99.90;;;;;;5034017;28;20026;-78
2022/02/21 06:13:34;;;;;;;4.20;0.95;;;5.50;99.90;;;;;;5028756;28;20038;-79
2022/02/21 06:16:00;;;;;;;9.07;1.70;;;5.50;99.90;;;;;;5029961;28;20080;-78
2022/02/21 06:18:26;;;;;;;7.82;1.10;;;5.50;99.90;;;;;;5029624;28;20090;-79
2022/02/21 06:20:52;;;;;;;6.72;1.48;;;5.60;99.90;;;;;;5027773;28;20032;-78
2022/02/21 06:23:18;;;;;;;11.18;2.00;;;5.50;99.90;;;;;;5034245;28;20025;-78
2022/02/21 06:25:44;;;;;;;5.72;2.63;;;5.50;99.90;;;;;;5029947;28;20034;-78
2022/02/21 06:28:10;;;;;;;10.30;1.88;;;5.60;99.90;;;;;;5028925;28;20049;-78
2022/02/21 06:30:36;;;;;;;14.07;1.77;;;5.60;99.90;;;;;;5035086;28;20024;-78
2022/02/21 06:33:01;;;;;;;12.18;1.70;;;5.60;99.90;;;;;;5044606;28;20034;-78
2022/02/21 06:35:27;;;;;;;10.02;2.53;;;5.50;99.90;;;;;;5044657;28;20014;-76
2022/02/21 06:37:54;;;;;;;9.02;1.80;;;5.60;99.90;;;;;;5051377;28;20042;-76
2022/02/21 06:40:21;;;;;;;7.70;1.67;;;5.60;99.90;;;;;;5051887;28;20025;-77
2022/02/21 06:42:48;;;;;;;9.20;1.70;;;5.50;99.90;;;;;;5054669;28;20081;-78
2022/02/21 06:45:13;;;;;;;10.55;1.55;;;5.60;99.90;;;;;;5053202;28;20028;-78
2022/02/21 06:47:39;;;;;;;6.88;1.52;;;5.50;99.90;;;;;;5052137;28;20093;-77
2022/02/21 06:50:06;;;;;;;5.10;1.55;;;5.50;99.90;;;;;;5053232;28;21067;-78
2022/02/21 06:52:31;;;;;;;6.13;1.90;;;5.60;99.90;;;;;;5050894;28;20017;-79
2022/02/21 06:55:02;;;;;;;8.02;1.25;;;5.50;99.90;;;;;;5039064;28;20382;-78
2022/02/21 06:57:27;;;;;;;5.30;1.37;;;5.50;99.90;;;;;;5030500;28;20032;-78
2022/02/21 06:59:53;;;;;;;7.07;1.70;;;5.50;99.90;;;;;;5027252;28;20275;-80
2022/02/21 07:02:19;;;;;;;7.93;1.52;;;5.50;99.90;;;;;;5032215;28;20497;-80
2022/02/21 07:04:45;;;;;;;6.20;2.75;;;5.50;99.90;;;;;;5033463;28;20033;-79
2022/02/21 07:07:10;;;;;;;5.05;1.35;;;5.50;99.90;;;;;;5038687;28;20037;-79
2022/02/21 07:09:36;;;;;;;8.52;2.20;;;5.50;99.90;;;;;;5034084;28;20032;-79
2022/02/21 07:12:02;;;;;;;9.70;1.42;;;5.50;99.90;;;;;;5051182;28;20040;-80
2022/02/21 07:14:28;;;;;;;9.07;1.80;;;5.50;99.90;;;;;;5046530;28;20068;-78
2022/02/21 07:16:54;;;;;;;6.15;1.60;;;5.50;99.90;;;;;;5047166;28;20025;-77
2022/02/21 07:19:20;;;;;;;8.02;1.90;;;5.40;99.90;;;;;;5049579;28;20029;-79
2022/02/21 07:21:46;;;;;;;5.65;1.88;;;5.50;99.90;;;;;;5038251;28;20095;-78
2022/02/21 07:24:12;;;;;;;5.10;1.73;;;5.40;99.90;;;;;;5029527;28;20045;-79
2022/02/21 07:26:37;;;;;;;6.97;2.75;;;5.50;99.90;;;;;;5036569;28;20048;-78
2022/02/21 07:29:03;;;;;;;10.45;1.65;;;5.50;99.90;;;;;;5027281;28;20037;-79
2022/02/21 07:31:29;;;;;;;6.50;1.42;;;5.50;99.90;;;;;;5033415;28;20021;-78
2022/02/21 07:33:55;;;;;;;5.22;2.00;;;5.60;99.90;;;;;;5029699;28;20060;-77
2022/02/21 07:36:21;;;;;;;9.80;1.55;;;5.60;99.90;;;;;;5035506;28;20053;-77
2022/02/21 07:38:47;;;;;;;12.65;2.72;;;5.70;99.90;;;;;;5040214;28;20017;-78
2022/02/21 07:41:12;;;;;;;11.27;2.00;;;5.70;99.90;;;;;;5047397;28;20030;-79
2022/02/21 07:43:38;;;;;;;9.98;1.90;;;5.70;99.90;;;;;;5045238;28;20113;-79
2022/02/21 07:46:04;;;;;;;8.65;1.58;;;5.80;99.90;;;;;;5032746;28;20097;-79
2022/02/21 07:48:29;;;;;;;5.45;1.88;;;5.80;99.90;;;;;;5035490;28;20358;-79
2022/02/21 07:50:55;;;;;;;7.15;1.70;;;5.90;99.90;;;;;;5035632;28;20030;-79
2022/02/21 07:53:24;;;;;;;11.05;3.42;;;5.90;99.90;;;;;;5037103;28;20017;-78
2022/02/21 07:55:52;;;;;;;9.98;2.03;;;6.00;99.90;;;;;;5032717;28;20030;-80
2022/02/21 07:58:18;;;;;;;12.52;2.38;;;6.00;99.90;;;;;;5031872;28;20021;-78
2022/02/21 08:00:43;;;;;;;27.40;2.63;;;6.10;99.90;;;;;;5033096;28;20033;-78
2022/02/21 08:03:09;;;;;;;15.98;2.20;;;6.10;99.90;;;;;;5030812;28;20025;-78
2022/02/21 08:05:36;;;;;;;8.45;2.42;;;6.30;99.90;;;;;;5044093;28;20100;-78
2022/02/21 08:08:02;;;;;;;13.85;2.28;;;6.30;99.90;;;;;;5039606;28;20051;-78
2022/02/21 08:10:28;;;;;;;12.15;1.70;;;6.40;99.90;;;;;;5031980;28;20029;-78
2022/02/21 08:12:54;;;;;;;7.47;1.42;;;6.40;99.90;;;;;;5028961;28;20033;-79
2022/02/21 08:15:20;;;;;;;13.63;2.53;;;6.50;99.90;;;;;;5040172;28;20217;-77
2022/02/21 08:17:47;;;;;;;13.23;2.50;;;6.60;99.90;;;;;;5033412;28;20108;-79
2022/02/21 08:20:21;;;;;;;13.27;3.40;;;6.70;99.90;;;;;;5032539;28;20026;-79
2022/02/21 08:22:47;;;;;;;8.70;1.83;;;6.80;99.90;;;;;;5031723;28;20111;-78
2022/02/21 08:25:14;;;;;;;11.60;1.65;;;6.80;99.90;;;;;;5036372;28;20025;-80
2022/02/21 08:27:41;;;;;;;9.27;2.25;;;7.00;99.90;;;;;;5044056;28;20482;-79
2022/02/21 08:30:11;;;;;;;10.02;1.40;;;7.00;99.90;;;;;;5035180;28;20029;-80
2022/02/21 08:32:36;;;;;;;10.63;1.70;;;7.00;99.90;;;;;;5041320;28;20536;-79
2022/02/21 08:35:02;;;;;;;7.68;3.42;;;7.10;99.90;;;;;;5039838;28;20061;-81
2022/02/21 08:37:28;;;;;;;13.02;2.53;;;7.20;99.90;;;;;;5027140;28;20029;-79
2022/02/21 08:39:53;;;;;;;13.13;2.08;;;7.30;99.90;;;;;;5025779;28;20025;-80
2022/02/21 08:42:19;;;;;;;10.30;1.95;;;7.10;99.90;;;;;;5032432;28;20082;-77
2022/02/21 08:44:45;;;;;;;11.98;2.50;;;7.20;99.90;;;;;;5027540;28;20054;-80
2022/02/21 08:47:10;;;;;;;6.43;1.48;;;7.40;99.90;;;;;;5040034;28;20025;-79
2022/02/21 08:49:36;;;;;;;9.63;3.17;;;7.50;99.90;;;;;;5043560;28;20017;-78
2022/02/21 08:52:02;;;;;;;11.52;2.47;;;7.80;99.90;;;;;;5045356;28;20498;-78
2022/02/21 08:54:27;;;;;;;17.40;3.50;;;7.90;99.90;;;;;;5063477;28;20021;-77
2022/02/21 08:56:53;;;;;;;10.60;2.05;;;8.10;99.90;;;;;;5036515;28;20081;-76
2022/02/21 08:59:18;;;;;;;9.80;2.17;;;8.00;99.90;;;;;;5052346;28;20687;-76
2022/02/21 09:01:45;;;;;;;8.70;1.83;;;7.90;99.90;;;;;;5026553;28;20541;-75
2022/02/21 09:04:12;;;;;;;9.48;2.05;;;7.90;99.90;;;;;;5042007;28;20512;-76
2022/02/21 09:06:38;;;;;;;10.30;2.47;;;8.00;99.90;;;;;;5031899;28;20118;-75
2022/02/21 09:09:04;;;;;;;12.00;2.60;;;8.10;99.90;;;;;;5043387;28;20532;-75
2022/02/21 09:11:29;;;;;;;10.82;3.13;;;8.10;99.90;;;;;;5040117;28;20108;-77
2022/02/21 09:13:55;;;;;;;8.43;2.03;;;7.90;99.90;;;;;;5044690;28;20024;-77
2022/02/21 09:16:21;;;;;;;9.55;2.38;;;7.90;99.90;;;;;;5040736;28;20028;-76
2022/02/21 09:18:46;;;;;;;8.55;2.85;;;7.90;99.90;;;;;;5044557;28;20028;-75
2022/02/21 09:21:12;;;;;;;7.57;1.88;;;8.20;99.90;;;;;;5041103;28;20026;-76
2022/02/21 09:23:38;;;;;;;13.52;2.33;;;8.10;99.90;;;;;;5043400;28;20103;-77
2022/02/21 09:26:03;;;;;;;12.02;3.25;;;8.00;99.90;;;;;;5031152;28;20025;-75
2022/02/21 09:28:29;;;;;;;10.43;2.08;;;8.10;99.90;;;;;;5031751;28;20017;-76
2022/02/21 09:30:55;;;;;;;7.88;2.13;;;8.30;99.90;;;;;;5037039;28;20017;-76
2022/02/21 09:33:22;;;;;;;11.68;2.17;;;8.20;99.90;;;;;;5043512;28;20027;-77
2022/02/21 09:35:51;;;;;;;7.82;1.90;;;8.20;99.90;;;;;;5040002;28;20075;-76
2022/02/21 09:38:17;;;;;;;7.50;1.50;;;8.00;99.90;;;;;;5037630;28;20091;-76
2022/02/21 09:40:50;;;;;;;10.13;2.67;;;8.00;99.90;;;;;;5039589;28;20029;-76
2022/02/21 09:43:19;;;;;;;9.50;1.80;;;7.90;99.90;;;;;;5036256;28;20033;-76
2022/02/21 09:45:45;;;;;;;12.43;2.33;;;8.10;99.90;;;;;;5040100;28;20074;-77
2022/02/21 09:48:14;;;;;;;7.35;1.42;;;8.20;99.90;;;;;;5034013;28;20017;-77
2022/02/21 09:50:40;;;;;;;6.43;1.52;;;8.00;99.90;;;;;;5040611;28;20401;-77
2022/02/21 09:53:06;;;;;;;7.60;1.30;;;8.20;99.90;;;;;;5034668;28;20029;-75
2022/02/21 09:55:32;;;;;;;8.88;1.40;;;8.50;99.90;;;;;;5043566;28;20025;-76
2022/02/21 09:57:58;;;;;;;8.35;1.45;;;8.50;99.90;;;;;;5041997;28;20030;-76
2022/02/21 10:00:25;;;;;;;9.95;1.90;;;8.60;99.90;;;;;;5030036;28;20028;-76
2022/02/21 10:02:51;;;;;;;6.85;1.45;;;8.60;99.90;;;;;;5042997;28;20021;-77
2022/02/21 10:05:21;;;;;;;15.13;2.28;;;8.60;99.90;;;;;;5035627;28;20014;-76
2022/02/21 10:07:48;;;;;;;3.22;0.98;;;8.60;99.90;;;;;;5034588;28;20044;-76
2022/02/21 10:10:18;;;;;;;7.53;1.40;;;8.50;99.60;;;;;;5035829;28;20436;-77
2022/02/21 10:12:54;;;;;;;6.63;1.30;;;8.40;99.40;;;;;;5045406;28;20212;-78
2022/02/21 10:15:22;;;;;;;8.15;2.13;;;8.60;99.30;;;;;;5040761;28;20489;-76
2022/02/21 10:17:48;;;;;;;5.97;1.30;;;8.80;99.30;;;;;;5038468;28;20129;-77
2022/02/21 10:20:15;;;;;;;9.25;3.53;;;8.80;98.60;;;;;;5039246;28;20497;-76
2022/02/21 10:23:00;;;;;;;5.43;2.20;;;8.80;98.80;;;;;;5035482;28;20032;-78
2022/02/21 10:25:26;;;;;;;9.05;1.90;;;8.90;98.80;;;;;;5031340;28;20049;-78
2022/02/21 10:27:51;;;;;;;4.97;1.67;;;8.90;98.90;;;;;;5034107;28;20052;-77
2022/02/21 10:30:17;;;;;;;7.82;1.50;;;8.80;97.90;;;;;;5029707;28;20044;-73
2022/02/21 10:32:45;;;;;;;7.82;1.17;;;8.70;98.20;;;;;;5025830;28;20386;-78
2022/02/21 10:35:17;;;;;;;5.28;1.50;;;8.80;97.20;;;;;;5026572;28;20057;-79
2022/02/21 10:37:49;;;;;;;8.05;1.42;;;8.80;97.20;;;;;;5039699;28;20014;-77
2022/02/21 10:40:16;;;;;;;6.40;2.13;;;8.90;97.20;;;;;;5027338;28;20151;-78
2022/02/21 10:42:44;;;;;;;6.28;1.35;;;9.00;96.20;;;;;;5031599;28;20100;-78
2022/02/21 10:45:16;;;;;;;4.93;1.52;;;8.90;96.90;;;;;;5027910;28;20406;-78
2022/02/21 10:47:59;;;;;;;4.18;0.90;;;8.90;97.00;;;;;;5036222;28;20104;-77
2022/02/21 10:50:25;;;;;;;7.32;1.33;;;8.80;96.50;;;;;;5018611;28;20072;-76
2022/02/21 10:52:50;;;;;;;5.43;1.45;;;8.70;96.60;;;;;;5036352;28;20410;-79
2022/02/21 10:55:16;;;;;;;5.43;1.30;;;8.80;96.80;;;;;;5031688;28;20022;-80
2022/02/21 10:57:44;;;;;;;6.30;2.22;;;8.80;96.80;;;;;;5034385;28;20022;-78
2022/02/21 11:00:11;;;;;;;5.82;1.35;;;8.60;96.40;;;;;;5026001;28;20491;-78
2022/02/21 11:02:41;;;;;;;8.82;1.63;;;8.70;96.00;;;;;;5029651;28;20344;-80
2022/02/21 11:05:11;;;;;;;4.97;1.27;;;8.70;95.30;;;;;;5030638;28;20035;-77
2022/02/21 11:07:41;;;;;;;5.82;1.38;;;8.80;95.60;;;;;;5032490;28;20201;-78
2022/02/21 11:10:08;;;;;;;4.97;1.88;;;9.00;95.60;;;;;;5038150;28;20481;-79
2022/02/21 11:12:37;;;;;;;12.40;1.42;;;9.10;94.70;;;;;;5027523;28;20036;-82
2022/02/21 11:15:04;;;;;;;3.90;2.08;;;9.00;94.50;;;;;;5035208;28;20053;-80
2022/02/21 11:17:30;;;;;;;4.93;1.38;;;9.10;94.00;;;;;;5040981;28;20456;-78
2022/02/21 11:19:56;;;;;;;4.72;1.13;;;9.10;94.00;;;;;;5032642;28;20060;-78
2022/02/21 11:22:22;;;;;;;2.40;1.42;;;9.20;94.10;;;;;;5034622;28;20052;-79
2022/02/21 11:25:20;;;;;;;3.83;1.85;;;9.20;94.50;;;;;;5035708;28;20029;-78
2022/02/21 11:27:55;;;;;;;9.02;1.40;;;8.90;95.60;;;;;;5009786;28;20132;-78
2022/02/21 11:30:24;;;;;;;8.48;1.70;;;8.60;96.40;;;;;;5035742;28;20597;-79
2022/02/21 11:33:23;;;;;;;10.15;1.63;;;8.60;97.30;;;;;;5034164;28;20024;-79
2022/02/21 11:36:07;;;;;;;9.23;1.65;;;8.80;98.30;;;;;;5004764;28;20042;-79
2022/02/21 11:38:34;;;;;;;7.55;0.90;;;8.80;99.40;;;;;;5035327;28;20040;-79
2022/02/21 11:41:09;;;;;;;4.90;1.30;;;8.00;99.90;;;;;;5031976;28;20018;-80
2022/02/21 11:43:34;;;;;;;5.80;1.05;;;7.90;99.90;;;;;;5033257;28;20044;-79
2022/02/21 11:46:28;;;;;;;9.38;1.65;;;7.30;99.90;;;;;;5031044;28;20415;-77
2022/02/21 11:49:02;;;;;;;9.23;1.40;;;7.10;99.90;;;;;;5031871;28;20037;-75
2022/02/21 11:51:27;;;;;;;4.32;1.25;;;7.40;99.90;;;;;;5030786;28;20537;-74
2022/02/21 11:53:53;;;;;;;4.63;1.15;;;7.50;99.90;;;;;;5026197;28;20107;-75
2022/02/21 11:56:39;;;;;;;4.97;1.17;;;7.70;99.90;;;;;;5023887;28;20520;-75
2022/02/21 11:59:37;;;;;;;2.78;1.17;;;7.80;99.90;;;;;;5030314;28;20045;-74
2022/02/21 12:02:17;;;;;;;4.28;1.00;;;8.20;99.90;;;;;;5003019;28;20053;-74
2022/02/21 12:04:48;;;;;;;4.70;1.30;;;8.40;99.90;;;;;;5030205;28;20017;-75
2022/02/21 12:07:26;;;;;;;4.65;1.10;;;8.50;99.90;;;;;;5026417;28;20030;-74
2022/02/21 12:10:14;;;;;;;7.95;1.77;;;8.60;99.90;;;;;;5033504;28;20064;-74
2022/02/21 12:12:54;;;;;;;5.35;1.10;;;8.60;99.90;;;;;;5026634;28;20053;-75
2022/02/21 12:15:21;;;;;;;4.55;1.25;;;8.70;99.90;;;;;;5029391;28;20029;-74
2022/02/21 12:17:48;;;;;;;3.80;1.05;;;8.70;99.90;;;;;;5029533;28;20536;-75
2022/02/21 12:20:28;;;;;;;4.03;1.65;;;8.70;99.90;;;;;;5021863;28;20026;-74
2022/02/21 12:23:17;;;;;;;5.97;1.05;;;8.70;99.90;;;;;;5026916;28;20034;-75
2022/02/21 12:26:04;;;;;;;3.50;0.85;;;9.00;99.80;;;;;;5030707;28;20033;-74
2022/02/21 12:28:32;;;;;;;8.48;1.10;;;9.10;97.10;;;;;;5034367;28;20070;-77
2022/02/21 12:30:58;;;;;;;3.03;1.58;;;9.20;96.70;;;;;;5028818;28;20493;-74
2022/02/21 12:33:29;;;;;;;5.57;1.33;;;9.30;95.70;;;;;;5023546;28;20034;-74
2022/02/21 12:35:57;;;;;;;;;;;9.20;96.00;;;;;;5022309;28;20037;-75
2022/02/21 12:38:24;;;;;;;5.70;1.40;;;9.00;94.50;;;;;;5037450;28;19927;-74
2022/02/21 12:41:05;;;;;;;3.20;0.75;;;9.20;94.10;;;;;;5029531;28;20034;-74
2022/02/21 12:43:53;;;;;;;4.50;1.10;;;9.10;93.30;;;;;;5037230;28;20021;-73
2022/02/21 12:46:27;;;;;;;3.25;1.15;;;8.90;93.40;;;;;;5029728;28;20021;-75
2022/02/21 12:48:52;;;;;;;4.43;0.88;;;8.90;93.10;;;;;;5034387;28;20021;-73
2022/02/21 12:51:26;;;;;;;4.70;1.25;;;9.10;93.00;;;;;;5033072;28;20040;-74
2022/02/21 12:54:12;;;;;;;4.38;0.85;;;8.90;92.90;;;;;;5042097;28;20025;-75
2022/02/21 12:56:48;;;;;;;4.35;1.25;;;8.80;93.00;;;;;;5028754;28;20081;-75